Time;durP1;ratioP1;P1;durP2;ratioP2;P2;SDS_P1;SDS_P2;PMS_P1;PMS_P2;Temp;Humidity;BMP_temperature;BMP_pressure;BME280_temperature;BME280_humidity;BME280_pressure;Samples;Min_cycle;Max_cycle;Signal;HPM_P1;HPM_P2
2021/06/05 00:01:01;;;;;;;11.13;6.60;;;;;;;16.79;97.73;100975.66;5077700;28;20024;-82
2021/06/05 00:03:26;;;;;;;9.40;6.47;;;;;;;16.74;98.27;100972.28;5077805;28;20021;-82
2021/06/05 00:05:59;;;;;;;10.77;6.20;;;;;;;16.79;96.29;100975.66;5078230;28;20032;-81
2021/06/05 00:08:29;;;;;;;12.77;6.60;;;;;;;16.83;95.83;100976.38;5077504;28;20020;-81
2021/06/05 00:10:58;;;;;;;11.02;6.40;;;;;;;16.78;95.37;100973.94;5076940;28;20051;-82
2021/06/05 00:13:32;;;;;;;8.63;5.70;;;;;;;16.78;95.06;100976.56;5078831;28;20032;-82
2021/06/05 00:15:59;;;;;;;12.30;6.50;;;;;;;16.81;94.00;100965.13;5081358;28;20020;-82
2021/06/05 00:18:26;;;;;;;11.15;5.97;;;;;;;16.78;94.01;100971.31;5080666;28;20025;-82
2021/06/05 00:20:52;;;;;;;9.15;5.90;;;;;;;16.77;93.46;100974.00;5080770;28;20036;-82
2021/06/05 00:23:21;;;;;;;10.07;5.80;;;;;;;16.68;94.11;100969.91;5080558;28;20150;-82
2021/06/05 00:25:47;;;;;;;10.20;6.18;;;;;;;16.65;93.98;100971.78;5082113;28;20377;-84
2021/06/05 00:28:14;;;;;;;9.38;5.82;;;;;;;16.58;94.37;100968.53;5079941;28;20088;-82
2021/06/05 00:30:40;;;;;;;10.80;5.88;;;;;;;16.58;95.37;100981.63;5080351;28;20023;-82
2021/06/05 00:33:06;;;;;;;8.80;5.88;;;;;;;16.47;96.30;100992.53;5081483;28;20463;-82
2021/06/05 00:35:32;;;;;;;12.13;5.47;;;;;;;16.37;97.64;100985.88;5082466;28;20021;-82
2021/06/05 00:37:58;;;;;;;11.60;6.30;;;;;;;16.42;96.75;100978.72;5082203;28;20028;-81
2021/06/05 00:40:29;;;;;;;9.60;6.15;;;;;;;16.37;96.86;100979.78;5081931;28;20511;-82
2021/06/05 00:42:56;;;;;;;9.95;6.10;;;;;;;16.36;96.72;100976.31;5081643;28;20491;-82
2021/06/05 00:45:23;;;;;;;9.18;6.40;;;;;;;16.40;95.83;100974.44;5081680;28;20028;-82
2021/06/05 00:47:49;;;;;;;9.45;5.90;;;;;;;16.42;94.29;100972.63;5080625;28;20035;-82
2021/06/05 00:50:15;;;;;;;10.00;5.80;;;;;;;16.49;93.76;100979.34;5080471;28;20020;-82
2021/06/05 00:52:43;;;;;;;10.30;6.20;;;;;;;16.54;92.46;100969.59;5080233;28;20024;-81
2021/06/05 00:55:11;;;;;;;8.45;5.65;;;;;;;16.62;91.87;100964.91;5080410;28;20031;-82
2021/06/05 00:57:36;;;;;;;11.02;6.10;;;;;;;16.58;92.75;100969.41;5078261;28;20022;-82
2021/06/05 01:00:04;;;;;;;10.45;6.55;;;;;;;16.58;92.41;100965.94;5080677;28;20055;-82
2021/06/05 01:02:30;;;;;;;11.57;6.43;;;;;;;16.64;91.23;100968.31;5082346;28;20198;-81
2021/06/05 01:04:55;;;;;;;9.85;6.05;;;;;;;16.67;90.85;100969.97;5081826;28;20056;-82
2021/06/05 01:07:24;;;;;;;10.93;6.00;;;;;;;16.64;90.50;100968.31;5080789;28;20032;-82
2021/06/05 01:09:58;;;;;;;8.52;5.88;;;;;;;16.58;90.71;100974.63;5082549;28;20040;-82
2021/06/05 01:12:36;;;;;;;8.90;5.93;;;;;;;16.57;90.56;100972.09;5083549;28;20024;-81
2021/06/05 01:15:16;;;;;;;6.97;5.68;;;;;;;16.51;91.08;100973.16;5083686;28;20040;-81
2021/06/05 01:17:51;;;;;;;11.57;5.93;;;;;;;16.52;91.02;100982.72;5081412;28;20017;-82
2021/06/05 01:20:53;;;;;;;9.02;6.10;;;;;;;16.45;91.63;100983.00;5082046;28;20032;-82
2021/06/05 01:23:40;;;;;;;8.90;5.72;;;;;;;16.37;92.55;100982.41;5081649;28;20024;-81
2021/06/05 01:26:27;;;;;;;7.40;5.97;;;;;;;16.35;92.92;100979.88;5081178;28;20024;-82
2021/06/05 01:29:02;;;;;;;8.80;5.45;;;;;;;16.27;94.31;100990.59;5082245;28;20052;-82
2021/06/05 01:31:33;;;;;;;9.48;6.50;;;;;;;16.24;94.37;100984.59;5081298;28;20073;-81
2021/06/05 01:33:59;;;;;;;10.65;6.97;;;;;;;16.18;94.96;100992.66;5081838;28;20051;-82
2021/06/05 01:36:25;;;;;;;8.57;6.18;;;;;;;16.12;95.25;100985.88;5079944;28;20028;-82
2021/06/05 01:38:55;;;;;;;11.82;6.50;;;;;;;16.07;95.45;100988.66;5080665;28;20515;-82
2021/06/05 01:41:23;;;;;;;10.73;6.18;;;;;;;16.10;95.18;100982.44;5080969;28;20032;-81
2021/06/05 01:43:50;;;;;;;9.85;7.00;;;;;;;16.07;94.57;100985.19;5080547;28;20100;-82
2021/06/05 01:46:19;;;;;;;8.57;6.10;;;;;;;16.08;93.76;100979.06;5080033;28;20031;-82
2021/06/05 01:48:45;;;;;;;10.48;6.53;;;;;;;16.13;93.07;100987.59;5081698;28;20035;-82
2021/06/05 01:51:15;;;;;;;9.35;6.10;;;;;;;16.19;92.56;100979.53;5079841;28;20021;-82
2021/06/05 01:53:48;;;;;;;9.65;6.10;;;;;;;16.06;93.84;100983.47;5080953;28;20362;-82
2021/06/05 01:56:30;;;;;;;8.32;6.60;;;;;;;15.95;94.81;100977.75;5079410;28;20024;-82
2021/06/05 01:58:59;;;;;;;9.23;6.50;;;;;;;15.85;95.05;100980.66;5080027;28;20021;-82
2021/06/05 02:01:25;;;;;;;13.43;7.82;;;;;;;15.85;95.14;100980.66;5082171;28;20067;-82
2021/06/05 02:03:51;;;;;;;10.43;6.82;;;;;;;15.86;95.27;100984.16;5081050;28;20020;-82
2021/06/05 02:06:19;;;;;;;9.20;6.38;;;;;;;15.88;94.97;100980.56;5080909;28;20066;-82
2021/06/05 02:08:44;;;;;;;9.65;6.90;;;;;;;15.85;94.57;100983.28;5081872;28;20024;-82
2021/06/05 02:11:16;;;;;;;8.20;6.38;;;;;;;15.86;94.55;100982.41;5081004;28;20555;-82
2021/06/05 02:13:46;;;;;;;10.35;6.38;;;;;;;15.77;95.11;100981.84;5081661;28;20024;-82
2021/06/05 02:16:21;;;;;;;9.45;6.22;;;;;;;15.71;95.29;100971.59;5080675;28;20028;-82
2021/06/05 02:18:52;;;;;;;8.82;6.78;;;;;;;15.71;95.60;100980.28;5083134;28;20021;-81
2021/06/05 02:21:21;;;;;;;10.63;6.68;;;;;;;15.68;95.21;100979.53;5079246;28;20021;-81
2021/06/05 02:23:52;;;;;;;10.63;6.55;;;;;;;15.60;96.08;100982.34;5080919;28;20044;-81
2021/06/05 02:26:20;;;;;;;12.07;6.30;;;;;;;15.57;95.82;100980.69;5081382;28;20035;-81
2021/06/05 02:28:49;;;;;;;9.57;6.57;;;;;;;15.58;95.81;100974.56;5079232;28;20036;-82
2021/06/05 02:31:15;;;;;;;8.95;6.38;;;;;;;15.62;95.27;100975.31;5077565;28;20036;-82
2021/06/05 02:33:41;;;;;;;10.50;6.78;;;;;;;15.61;95.29;100968.41;5076230;28;20484;-82
2021/06/05 02:36:10;;;;;;;10.48;6.20;;;;;;;15.55;95.38;100964.22;5077901;28;20056;-82
2021/06/05 02:38:36;;;;;;;9.98;6.60;;;;;;;15.50;95.65;100967.88;5078844;28;20111;-82
2021/06/05 02:41:04;;;;;;;12.45;7.75;;;;;;;15.59;94.82;100964.97;5078570;28;20028;-82
2021/06/05 02:43:32;;;;;;;11.10;6.63;;;;;;;15.53;95.58;100965.16;5078878;28;20028;-82
2021/06/05 02:46:18;;;;;;;11.48;6.97;;;;;;;15.43;95.53;100959.38;5078317;28;20024;-82
2021/06/05 02:48:56;;;;;;;9.05;6.93;;;;;;;15.42;94.69;100963.75;5077645;28;20024;-82
2021/06/05 02:51:31;;;;;;;9.00;6.28;;;;;;;15.37;95.14;100960.41;5078931;28;20057;-82
2021/06/05 02:53:57;;;;;;;9.38;6.53;;;;;;;15.41;94.37;100956.78;5076525;28;20025;-82
2021/06/05 02:56:22;;;;;;;7.82;6.20;;;;;;;15.44;93.73;100961.06;5076760;28;20111;-83
2021/06/05 02:58:48;;;;;;;9.45;5.85;;;;;;;15.49;93.23;100958.34;5077221;28;20086;-83
2021/06/05 03:01:14;;;;;;;11.98;6.70;;;;;;;15.40;93.97;100956.84;5078774;28;20090;-82
2021/06/05 03:03:39;;;;;;;15.07;7.40;;;;;;;15.46;93.23;100950.59;5079636;28;20392;-82
2021/06/05 03:06:06;;;;;;;14.18;6.65;;;;;;;15.46;93.07;100953.19;5079382;28;20048;-82
2021/06/05 03:08:34;;;;;;;8.57;6.22;;;;;;;15.48;92.73;100957.44;5080381;28;20473;-82
2021/06/05 03:11:02;;;;;;;10.00;6.80;;;;;;;15.48;92.09;100952.22;5079323;28;20024;-82
2021/06/05 03:13:28;;;;;;;8.85;6.55;;;;;;;15.46;92.57;100946.22;5080940;28;20336;-82
2021/06/05 03:15:53;;;;;;;9.88;6.68;;;;;;;15.40;93.21;100941.19;5079972;28;20092;-81
2021/06/05 03:18:22;;;;;;;8.68;6.72;;;;;;;15.32;94.33;100940.56;5077423;28;20550;-82
2021/06/05 03:20:48;;;;;;;9.45;6.22;;;;;;;15.42;92.29;100944.56;5077544;28;20392;-82
2021/06/05 03:23:16;;;;;;;9.02;5.70;;;;;;;15.47;90.96;100944.44;5077236;28;20024;-82
2021/06/05 03:25:41;;;;;;;10.57;5.90;;;;;;;15.45;91.46;100941.00;5078769;28;20028;-82
2021/06/05 03:28:08;;;;;;;14.07;5.82;;;;;;;15.52;89.99;100946.00;5080718;28;20111;-82
2021/06/05 03:30:35;;;;;;;9.15;6.38;;;;;;;15.48;91.08;100946.16;5077822;28;20055;-82
2021/06/05 03:33:00;;;;;;;8.18;5.85;;;;;;;15.51;90.58;100940.81;5076841;28;20123;-82
2021/06/05 03:35:25;;;;;;;10.73;6.10;;;;;;;15.53;90.51;100949.47;5077950;28;20041;-82
2021/06/05 03:37:51;;;;;;;8.95;5.82;;;;;;;15.56;90.54;100952.00;5079017;28;20024;-82
2021/06/05 03:40:21;;;;;;;8.65;6.05;;;;;;;15.54;90.84;100953.78;5079742;28;20456;-82
2021/06/05 03:42:46;;;;;;;7.82;6.05;;;;;;;15.59;90.51;100938.81;5079200;28;20024;-82
2021/06/05 03:45:12;;;;;;;11.93;5.90;;;;;;;15.65;90.72;100946.47;5079533;28;20546;-82
2021/06/05 03:47:38;;;;;;;9.25;5.90;;;;;;;15.68;89.98;100948.16;5081865;28;20048;-82
2021/06/05 03:50:07;;;;;;;9.63;5.88;;;;;;;15.73;89.39;100951.44;5085743;28;20082;-82
2021/06/05 03:52:32;;;;;;;8.80;5.75;;;;;;;15.70;90.11;100947.22;5085077;28;20024;-81
2021/06/05 03:54:57;;;;;;;8.27;5.75;;;;;;;15.74;89.94;100947.94;5086097;28;20023;-82
2021/06/05 03:57:25;;;;;;;9.32;5.65;;;;;;;15.77;89.51;100948.69;5084631;28;20024;-82
2021/06/05 03:59:53;;;;;;;10.40;5.88;;;;;;;15.85;89.16;100951.03;5084718;28;20021;-82
2021/06/05 04:02:20;;;;;;;9.18;5.38;;;;;;;15.84;88.39;100949.34;5087925;28;20021;-81
2021/06/05 04:04:46;;;;;;;8.60;5.50;;;;;;;15.91;88.89;100950.84;5087392;28;20024;-81
2021/06/05 04:07:11;;;;;;;10.13;5.43;;;;;;;15.91;88.42;100950.84;5085761;28;20031;-82
2021/06/05 04:09:40;;;;;;;10.07;5.35;;;;;;;15.91;88.47;100952.59;5084114;28;20024;-82
2021/06/05 04:12:08;;;;;;;7.65;5.90;;;;;;;15.95;89.46;100946.34;5087367;28;20504;-81
2021/06/05 04:14:34;;;;;;;12.02;6.60;;;;;;;15.88;88.96;100953.56;5085282;28;20054;-82
2021/06/05 04:16:59;;;;;;;8.95;6.03;;;;;;;15.91;89.20;100955.22;5084843;28;20504;-82
2021/06/05 04:19:24;;;;;;;9.73;5.80;;;;;;;15.90;89.18;100954.38;5084378;28;20029;-82
2021/06/05 04:21:51;;;;;;;10.02;6.13;;;;;;;16.06;88.64;100966.00;5084769;28;20028;-82
2021/06/05 04:24:17;;;;;;;9.02;5.70;;;;;;;16.09;87.97;100962.44;5086265;28;20020;-82
2021/06/05 04:26:42;;;;;;;12.85;6.10;;;;;;;16.11;88.08;100965.88;5086620;28;20029;-82
2021/06/05 04:29:08;;;;;;;12.75;6.28;;;;;;;16.14;88.67;100960.53;5085649;28;20161;-82
2021/06/05 04:31:33;;;;;;;9.98;6.30;;;;;;;16.14;88.17;100957.91;5083170;28;20481;-82
2021/06/05 04:33:59;;;;;;;10.25;5.90;;;;;;;16.14;88.08;100962.28;5084143;28;20024;-82
2021/06/05 04:36:25;;;;;;;8.70;6.30;;;;;;;16.28;86.76;100960.88;5086403;28;20020;-82
2021/06/05 04:38:50;;;;;;;8.50;5.47;;;;;;;16.40;87.29;100951.72;5087599;28;20024;-82
2021/06/05 04:41:18;;;;;;;8.45;5.72;;;;;;;16.38;85.88;100950.06;5085568;28;20028;-82
2021/06/05 04:43:44;;;;;;;9.48;5.82;;;;;;;16.48;85.99;100951.47;5087733;28;20029;-82
2021/06/05 04:46:12;;;;;;;9.00;5.70;;;;;;;16.44;85.57;100950.72;5085368;28;20028;-82
2021/06/05 04:48:39;;;;;;;10.63;5.70;;;;;;;16.40;85.91;100953.50;5086772;28;20087;-82
2021/06/05 04:51:05;;;;;;;7.90;5.90;;;;;;;16.53;85.12;100954.75;5085694;28;20024;-82
2021/06/05 04:53:31;;;;;;;9.65;5.75;;;;;;;16.56;85.59;100952.91;5086228;28;20086;-82
2021/06/05 04:55:56;;;;;;;8.13;5.40;;;;;;;16.64;84.34;100952.59;5086137;28;20097;-82
2021/06/05 04:58:22;;;;;;;11.48;6.40;;;;;;;16.91;83.00;100953.38;5084926;28;20035;-82
2021/06/05 05:00:50;;;;;;;10.43;6.43;;;;;;;17.23;80.89;100952.09;5082141;28;20028;-82
2021/06/05 05:03:18;;;;;;;9.32;6.60;;;;;;;17.70;78.37;100951.97;5082219;28;20024;-81
2021/06/05 05:05:45;;;;;;;8.52;5.70;;;;;;;17.65;77.65;100953.91;5081575;28;20029;-82
2021/06/05 05:08:13;;;;;;;9.35;5.50;;;;;;;17.87;77.93;100963.56;5081941;28;20032;-82
2021/06/05 05:10:43;;;;;;;10.57;5.63;;;;;;;17.92;77.51;100956.34;5083330;28;20440;-82
2021/06/05 05:13:08;;;;;;;14.38;6.25;;;;;;;18.26;75.75;100963.63;5082731;28;20024;-82
2021/06/05 05:15:34;;;;;;;7.25;5.50;;;;;;;18.07;76.29;100960.94;5079819;28;20089;-82
2021/06/05 05:17:59;;;;;;;11.60;5.93;;;;;;;17.99;77.00;100957.78;5079756;28;20025;-82
2021/06/05 05:20:29;;;;;;;10.52;5.70;;;;;;;18.25;75.49;100947.91;5079356;28;20024;-82
2021/06/05 05:22:54;;;;;;;8.35;5.82;;;;;;;18.22;75.67;100948.91;5079792;28;20087;-82
2021/06/05 05:25:21;;;;;;;10.60;5.85;;;;;;;18.41;75.63;100943.69;5079574;28;20027;-82
2021/06/05 05:27:46;;;;;;;11.70;6.40;;;;;;;18.26;76.57;100949.66;5079328;28;20016;-82
2021/06/05 05:30:15;;;;;;;10.55;6.15;;;;;;;18.39;75.73;100935.03;5077758;28;20050;-82
2021/06/05 05:32:41;;;;;;;8.98;6.00;;;;;;;19.09;73.75;100944.97;5078046;28;20040;-83
2021/06/05 05:35:07;;;;;;;8.95;6.07;;;;;;;18.89;73.46;100942.41;5080714;28;20024;-83
2021/06/05 05:37:33;;;;;;;10.35;5.95;;;;;;;19.05;73.68;100942.53;5079391;28;20031;-83
2021/06/05 05:39:58;;;;;;;8.10;6.07;;;;;;;18.77;74.33;100954.34;5079753;28;20111;-83
2021/06/05 05:42:24;;;;;;;9.73;5.95;;;;;;;18.97;74.39;100958.69;5080009;28;20021;-83
2021/06/05 05:44:49;;;;;;;9.13;5.90;;;;;;;19.62;71.89;100953.81;5082542;28;20017;-83
2021/06/05 05:47:14;;;;;;;10.90;6.57;;;;;;;19.27;72.69;100955.50;5078109;28;20111;-86
2021/06/05 05:49:40;;;;;;;11.57;5.90;;;;;;;19.43;71.98;100953.88;5079538;28;20032;-86
2021/06/05 05:52:05;;;;;;;9.38;5.90;;;;;;;20.00;71.04;100959.78;5079466;28;20016;-88
2021/06/05 05:54:31;;;;;;;10.40;6.10;;;;;;;20.20;69.08;100956.16;5081373;28;20047;-89
2021/06/05 05:56:56;;;;;;;9.07;6.28;;;;;;;19.86;70.44;100956.16;5084355;28;20028;-87
2021/06/05 05:59:21;;;;;;;8.65;5.55;;;;;;;20.04;70.42;100954.38;5095908;28;20024;-86
2021/06/05 06:01:47;;;;;;;9.18;5.75;;;;;;;19.70;71.15;100956.91;5090736;28;20472;-88
2021/06/05 06:04:14;;;;;;;9.88;5.85;;;;;;;19.95;71.05;100961.84;5095488;28;20025;-87
2021/06/05 06:06:44;;;;;;;8.40;6.05;;;;;;;20.47;69.71;100963.50;5093930;28;20012;-87
2021/06/05 06:09:10;;;;;;;9.68;5.70;;;;;;;20.52;70.71;100956.25;5090809;28;20021;-87
2021/06/05 06:11:48;;;;;;;10.32;5.63;;;;;;;20.77;68.35;100966.34;5089967;28;20443;-88
2021/06/05 06:14:14;;;;;;;8.23;6.00;;;;;;;20.45;68.26;100955.72;5092194;28;20051;-86
2021/06/05 06:16:47;;;;;;;8.43;5.57;;;;;;;20.46;68.27;100959.19;5090132;28;20047;-87
2021/06/05 06:19:13;;;;;;;11.20;6.30;;;;;;;20.59;68.70;100952.34;5086992;28;20201;-86
2021/06/05 06:21:40;;;;;;;10.20;6.15;;;;;;;20.58;68.46;100952.44;5089131;28;20051;-85
2021/06/05 06:24:06;;;;;;;7.60;5.57;;;;;;;20.41;67.82;100954.19;5086547;28;20067;-85
2021/06/05 06:26:32;;;;;;;10.02;5.72;;;;;;;20.99;67.16;100944.91;5089498;28;20029;-85
2021/06/05 06:29:16;;;;;;;7.28;4.35;;;;;;;20.83;67.54;100947.53;5090753;28;20030;-85
2021/06/05 06:32:01;;;;;;;8.85;5.40;;;;;;;20.41;67.74;100948.03;5087654;28;20054;-85
2021/06/05 06:34:44;;;;;;;8.15;5.65;;;;;;;20.80;67.03;100945.06;5090600;28;20093;-87
2021/06/05 06:37:09;;;;;;;10.35;5.60;;;;;;;20.86;66.92;100947.38;5088381;28;20025;-88
2021/06/05 06:39:40;;;;;;;10.80;5.95;;;;;;;20.95;66.08;100943.38;5085823;28;20021;-86
2021/06/05 06:42:06;;;;;;;11.20;6.20;;;;;;;20.73;67.81;100948.13;5090774;28;20104;-86
2021/06/05 06:44:51;;;;;;;10.77;5.78;;;;;;;21.46;66.56;100946.69;5089616;28;20047;-86
2021/06/05 06:47:17;;;;;;;9.80;5.30;;;;;;;21.15;65.87;100947.53;5089349;28;20020;-85
2021/06/05 06:49:42;;;;;;;9.82;6.20;;;;;;;21.34;65.11;100956.13;5089356;28;20024;-85
2021/06/05 06:52:10;;;;;;;7.25;5.13;;;;;;;22.47;62.86;100959.16;5092760;28;20009;-85
2021/06/05 06:55:26;;;;;;;7.82;4.75;;;;;;;22.26;62.38;100955.19;5087456;28;20084;-85
2021/06/05 06:57:52;;;;;;;10.60;5.38;;;;;;;22.11;61.33;100956.97;5089322;28;20028;-85
2021/06/05 07:00:44;;;;;;;8.57;5.28;;;;;;;22.09;61.45;100955.34;5087895;28;20039;-85
2021/06/05 07:03:10;;;;;;;8.82;5.30;;;;;;;21.79;60.96;100954.41;5085818;28;20107;-83
2021/06/05 07:05:49;;;;;;;8.43;4.90;;;;;;;21.27;62.40;100957.41;5085069;28;20021;-84
2021/06/05 07:08:23;;;;;;;8.90;5.00;;;;;;;21.58;62.18;100960.94;5086844;28;20028;-84
2021/06/05 07:10:59;;;;;;;7.70;4.63;;;;;;;21.77;62.33;100963.41;5083766;28;20028;-84
2021/06/05 07:13:26;;;;;;;11.00;5.05;;;;;;;21.89;60.41;100953.88;5084181;28;20040;-83
2021/06/05 07:15:53;;;;;;;9.80;5.25;;;;;;;22.27;59.71;100955.13;5085148;28;20016;-85
2021/06/05 07:18:27;;;;;;;6.72;4.60;;;;;;;21.64;60.78;100959.75;5088256;28;20496;-84
2021/06/05 07:20:53;;;;;;;9.00;5.93;;;;;;;21.42;60.74;100960.13;5085058;28;20043;-83
2021/06/05 07:23:21;;;;;;;8.65;5.07;;;;;;;21.93;60.85;100955.41;5118428;22;20385;-83
2021/06/05 07:25:47;;;;;;;8.32;4.90;;;;;;;22.69;58.81;100956.06;5081519;28;20236;-84
2021/06/05 07:28:20;;;;;;;9.18;4.57;;;;;;;23.30;55.90;100953.94;5076083;28;20024;-85
2021/06/05 07:30:50;;;;;;;5.90;3.88;;;;;;;23.27;55.82;100948.00;5058305;28;20465;-86
2021/06/05 07:33:16;;;;;;;7.18;4.60;;;;;;;23.65;55.96;100949.00;5072004;28;20054;-86
2021/06/05 07:35:43;;;;;;;10.05;5.15;;;;;;;23.51;56.00;100951.69;5073662;28;20021;-86
2021/06/05 07:38:12;;;;;;;9.35;4.10;;;;;;;23.93;55.37;100952.47;5074917;28;20032;-87
2021/06/05 07:40:56;;;;;;;9.70;4.68;;;;;;;24.63;53.97;100948.53;5074000;28;20028;-87
2021/06/05 07:43:25;;;;;;;7.15;4.25;;;;;;;23.45;54.66;100944.16;5073749;28;20488;-86
2021/06/05 07:46:10;;;;;;;11.20;5.18;;;;;;;23.74;54.06;100949.34;5074015;28;20032;-86
2021/06/05 07:48:36;;;;;;;7.40;4.47;;;;;;;23.68;54.42;100950.59;5073381;28;20040;-86
2021/06/05 07:51:03;;;;;;;8.68;4.00;;;;;;;23.92;55.39;100953.41;5073041;28;20077;-85
2021/06/05 07:53:28;;;;;;;6.90;4.30;;;;;;;23.80;54.06;100952.44;5073417;28;20025;-85
2021/06/05 07:55:54;;;;;;;8.05;4.07;;;;;;;24.00;53.71;100952.88;5073011;28;20069;-85
2021/06/05 07:58:20;;;;;;;7.53;4.28;;;;;;;23.95;52.82;100963.78;5072834;28;20095;-84
2021/06/05 08:00:45;;;;;;;9.70;4.20;;;;;;;24.52;52.49;100958.09;5073642;28;20028;-85
2021/06/05 08:03:17;;;;;;;6.30;4.18;;;;;;;24.08;51.42;100955.88;5076377;28;20096;-85
2021/06/05 08:05:43;;;;;;;9.60;4.20;;;;;;;24.62;53.50;100955.66;5075555;28;20123;-85
2021/06/05 08:08:10;;;;;;;9.07;4.03;;;;;;;23.88;54.33;100968.66;5075791;28;20052;-84
2021/06/05 08:10:39;;;;;;;7.13;4.30;;;;;;;24.07;52.00;100957.66;5074194;28;20016;-85
2021/06/05 08:13:04;;;;;;;6.40;4.28;;;;;;;24.20;52.43;100957.69;5073609;28;20028;-85
2021/06/05 08:15:35;;;;;;;8.98;4.18;;;;;;;23.75;52.49;100951.06;5075624;28;20518;-85
2021/06/05 08:18:01;;;;;;;9.63;4.05;;;;;;;23.08;54.59;100962.44;5076224;28;20025;-85
2021/06/05 08:20:31;;;;;;;7.32;4.13;;;;;;;22.86;54.84;100962.06;5073634;28;20028;-84
2021/06/05 08:22:57;;;;;;;8.73;4.10;;;;;;;23.65;53.66;100956.94;5075244;28;20025;-83
2021/06/05 08:25:23;;;;;;;7.07;3.95;;;;;;;25.35;51.26;100956.63;5074748;28;20028;-84
2021/06/05 08:27:56;;;;;;;8.05;4.05;;;;;;;24.78;51.30;100960.69;5072468;28;20484;-87
2021/06/05 08:30:28;;;;;;;6.95;3.60;;;;;;;24.52;52.44;100958.09;5071937;28;20032;-86
2021/06/05 08:33:06;;;;;;;9.80;4.10;;;;;;;24.65;52.44;100955.44;5072368;28;20495;-83
2021/06/05 08:35:31;;;;;;;7.55;3.97;;;;;;;24.50;53.12;100959.16;5075376;28;20047;-85
2021/06/05 08:37:57;;;;;;;7.30;3.72;;;;;;;24.33;52.50;100952.38;5075292;28;20063;-85
2021/06/05 08:40:50;;;;;;;7.53;3.60;;;;;;;22.83;55.14;100956.97;5075446;28;20029;-84
2021/06/05 08:43:29;;;;;;;7.85;3.85;;;;;;;23.43;54.34;100960.16;5075506;28;20099;-84
2021/06/05 08:46:02;;;;;;;6.40;3.33;;;;;;;23.88;50.53;100951.91;5075730;28;20048;-84
2021/06/05 08:48:28;;;;;;;6.63;3.60;;;;;;;25.12;49.19;100951.16;5075371;28;20028;-83
2021/06/05 08:51:20;;;;;;;6.85;3.60;;;;;;;23.87;51.59;100961.66;5076022;28;20393;-83
2021/06/05 08:53:45;;;;;;;9.00;3.92;;;;;;;23.97;51.14;100953.94;5075714;28;20036;-83
2021/06/05 08:56:26;;;;;;;10.50;3.80;;;;;;;23.97;50.94;100956.59;5075802;28;20047;-83
2021/06/05 08:58:58;;;;;;;9.52;3.80;;;;;;;23.87;52.24;100951.06;5075675;28;20025;-83
2021/06/05 09:01:48;;;;;;;6.15;3.65;;;;;;;24.74;49.09;100951.28;5075720;28;20563;-83
2021/06/05 09:04:24;;;;;;;7.05;3.80;;;;;;;25.17;47.41;100951.69;5076009;28;20028;-83
2021/06/05 09:07:05;;;;;;;7.40;3.58;;;;;;;25.85;47.28;100950.19;5075323;28;20446;-83
2021/06/05 09:09:34;;;;;;;6.68;3.63;;;;;;;25.55;46.98;100955.13;5075552;28;20074;-83
2021/06/05 09:12:01;;;;;;;8.60;3.83;;;;;;;25.65;46.01;100953.50;5075261;28;20024;-83
2021/06/05 09:14:27;;;;;;;5.50;3.30;;;;;;;25.74;47.71;100942.19;5075286;28;20020;-83
2021/06/05 09:17:02;;;;;;;7.85;3.17;;;;;;;26.15;44.22;100940.81;5075129;28;20070;-83
2021/06/05 09:19:30;;;;;;;7.57;3.67;;;;;;;25.92;43.82;100946.13;5075024;28;20111;-83
2021/06/05 09:22:17;;;;;;;6.95;3.63;;;;;;;25.75;44.07;100937.69;5076201;28;20032;-83
2021/06/05 09:24:52;;;;;;;7.18;3.63;;;;;;;25.36;44.72;100932.59;5075760;28;20029;-82
2021/06/05 09:27:17;;;;;;;10.10;3.28;;;;;;;25.75;44.44;100938.53;5076788;28;20115;-82
2021/06/05 09:29:49;;;;;;;9.23;3.60;;;;;;;25.92;45.84;100938.13;5075560;28;20071;-83
2021/06/05 09:32:27;;;;;;;7.22;3.60;;;;;;;26.78;45.93;100931.41;5074903;28;20865;-83
2021/06/05 09:34:55;;;;;;;8.07;4.03;;;;;;;26.70;43.89;100933.84;5074742;28;20024;-83
2021/06/05 09:37:40;;;;;;;7.45;2.97;;;;;;;26.60;44.50;100939.06;5076105;28;20021;-83
2021/06/05 09:40:35;;;;;;;8.38;3.30;;;;;;;27.20;41.30;100933.41;5075096;28;20028;-83
2021/06/05 09:43:24;;;;;;;6.93;3.10;;;;;;;26.25;43.82;100940.94;5076156;28;20043;-82
2021/06/05 09:46:28;;;;;;;7.80;3.20;;;;;;;26.81;40.91;100932.97;5075662;28;20031;-83
2021/06/05 09:49:16;;;;;;;6.60;3.08;;;;;;;26.89;42.32;100941.19;5074904;28;20031;-83
2021/06/05 09:51:57;;;;;;;9.82;3.17;;;;;;;26.07;41.21;100938.75;5075054;28;20029;-82
2021/06/05 09:54:41;;;;;;;6.07;3.08;;;;;;;26.73;41.01;100938.91;5075168;28;20048;-83
2021/06/05 09:57:18;;;;;;;;;;;;;;;26.61;41.93;100947.88;5076108;28;20024;-83
2021/06/05 10:00:00;;;;;;;10.60;3.38;;;;;;;27.22;41.04;100944.78;5091155;28;19916;-83
2021/06/05 10:02:25;;;;;;;6.50;2.83;;;;;;;28.10;39.76;100941.78;5074733;28;20032;-83
2021/06/05 10:05:06;;;;;;;6.25;3.05;;;;;;;27.80;38.96;100947.06;5074434;28;20051;-83
2021/06/05 10:07:32;;;;;;;8.32;2.83;;;;;;;27.66;39.10;100934.91;5075728;28;20166;-82
2021/06/05 10:10:32;;;;;;;5.00;2.95;;;;;;;27.39;40.60;100940.72;5075266;28;20077;-83
2021/06/05 10:13:02;;;;;;;5.03;3.13;;;;;;;27.24;41.36;100946.31;5074608;28;20134;-83
2021/06/05 10:15:36;;;;;;;9.80;2.90;;;;;;;26.88;42.16;100949.28;5075391;28;20028;-83
2021/06/05 10:18:19;;;;;;;4.93;2.60;;;;;;;26.30;41.78;100954.75;5075385;28;20024;-83
2021/06/05 10:20:51;;;;;;;5.57;2.83;;;;;;;26.88;42.06;100944.84;5074483;28;20094;-83
2021/06/05 10:23:24;;;;;;;9.65;3.22;;;;;;;27.53;39.50;100941.25;5074380;28;20103;-83
2021/06/05 10:25:55;;;;;;;5.20;2.83;;;;;;;27.60;39.83;100932.75;5077683;28;20074;-83
2021/06/05 10:28:49;;;;;;;8.23;3.00;;;;;;;27.17;41.15;100930.97;5075474;28;20053;-82
2021/06/05 10:31:18;;;;;;;;;;;;;;;27.45;39.99;100932.19;5070941;28;20028;-83
2021/06/05 10:33:47;;;;;;;5.28;3.00;;;;;;;27.85;38.95;100940.38;5074471;28;19999;-83
2021/06/05 10:36:37;;;;;;;5.32;2.83;;;;;;;29.37;38.16;100929.69;5074136;28;20016;-83
2021/06/05 10:39:08;;;;;;;10.27;3.00;;;;;;;27.38;41.15;100936.34;5074897;28;20059;-82
2021/06/05 10:41:44;;;;;;;5.78;3.05;;;;;;;28.03;41.79;100940.63;5073980;28;20039;-83
2021/06/05 10:44:10;;;;;;;8.27;3.47;;;;;;;26.73;41.52;100930.09;5073516;28;20535;-83
2021/06/05 10:46:35;;;;;;;8.23;3.05;;;;;;;27.82;39.91;100935.31;5075901;28;20035;-82
2021/06/05 10:49:10;;;;;;;9.70;3.08;;;;;;;29.00;37.08;100935.66;5074044;28;20028;-83
2021/06/05 10:51:39;;;;;;;7.38;3.10;;;;;;;28.96;38.87;100926.25;5075731;28;20091;-83
2021/06/05 10:54:08;;;;;;;8.52;3.15;;;;;;;28.72;37.83;100923.09;5074830;28;20016;-83
2021/06/05 10:56:38;;;;;;;6.35;3.20;;;;;;;28.44;37.34;100930.88;5072787;28;20480;-83
2021/06/05 10:59:09;;;;;;;5.72;2.85;;;;;;;28.51;38.39;100924.03;5073885;28;20024;-82
2021/06/05 11:01:37;;;;;;;5.30;2.83;;;;;;;29.11;35.71;100916.03;5074210;28;20028;-82
2021/06/05 11:04:06;;;;;;;5.82;3.00;;;;;;;27.66;38.27;100913.56;5075985;28;20052;-82
2021/06/05 11:06:46;;;;;;;6.85;3.08;;;;;;;28.37;39.29;100916.38;5075007;28;20020;-83
2021/06/05 11:09:24;;;;;;;7.43;3.10;;;;;;;28.56;37.66;100908.44;5074079;28;20028;-82
2021/06/05 11:11:50;;;;;;;7.05;2.90;;;;;;;28.12;38.51;100910.50;5073383;28;20108;-83
2021/06/05 11:14:15;;;;;;;10.23;3.35;;;;;;;27.36;39.85;100896.50;5075303;28;20480;-82
2021/06/05 11:16:59;;;;;;;5.17;3.07;;;;;;;28.74;37.70;100899.78;5073317;28;20036;-83
2021/06/05 11:19:36;;;;;;;7.88;3.08;;;;;;;27.18;38.89;100896.22;5076286;28;20553;-82
2021/06/05 11:22:07;;;;;;;7.00;2.92;;;;;;;28.31;36.19;100892.91;5073813;28;20119;-83
2021/06/05 11:24:33;;;;;;;5.10;2.80;;;;;;;28.10;35.58;100896.44;5072979;28;20028;-83
2021/06/05 11:27:01;;;;;;;6.55;2.88;;;;;;;29.81;33.98;100890.84;5073738;28;20024;-82
2021/06/05 11:29:26;;;;;;;6.38;2.50;;;;;;;29.38;36.44;100887.78;5073545;28;20445;-82
2021/06/05 11:31:59;;;;;;;7.32;3.10;;;;;;;29.07;36.71;100886.09;5073097;28;20040;-83
2021/06/05 11:34:37;;;;;;;6.03;2.78;;;;;;;28.86;36.18;100893.34;5074881;28;20024;-82
2021/06/05 11:37:14;;;;;;;5.03;2.63;;;;;;;28.49;36.82;100875.28;5074043;28;20033;-83
2021/06/05 11:39:51;;;;;;;5.50;2.65;;;;;;;28.73;35.93;100882.09;5074384;28;20430;-83